KGRI

Central Nebraska Regional Airport

Grand Island, Nebraska, USA
METAR KGRI 212353Z 12008KT 10SM CLR M03/M13 A3049 RMK AO2 SLP362 T10331133 11022 21072 55000
Observed Flight Rules
Feb-21 @ 23:53 UTC (5 hours ago) Visual Flight Rules
Wind Visibility Clouds
120° at 8 knots 10 miles
  • Clear skies
Temperatures Readings
Current -3°C / 27°F
Dewpoint -13°C / 9°F
Humidity 46%
Altimeter 30.49" Hg
Pressure 1036.2 hPa
Elevation 561
METAR KGRI 212353Z 12008KT 10SM CLR M03/M13 A3049 RMK AO2 SLP362 T10331133 11022 21072 55000
Observed Flight Rules
Feb-21 @ 23:53 UTC
(5 hours ago)
VFR
Wind Visibility
120° at 8 knots 10 miles
Clouds
  • Clear skies
Temperature Dewpoint
-3°C / 27°F -13°C / 9°F
Humidity Altimeter Pressure
46% 30.49" Hg 1036.2 hPa